Time;durP1;ratioP1;P1;durP2;ratioP2;P2;SDS_P1;SDS_P2;PMS_P1;PMS_P2;Temp;Humidity;BMP_temperature;BMP_pressure;BME280_temperature;BME280_humidity;BME280_pressure;Samples;Min_cycle;Max_cycle;Signal;HPM_P1;HPM_P2
2022/01/10 00:00:54;;;;;;;15.57;7.82;;;3.80;99.90;;;;;;4914142;29;20071;-74
2022/01/10 04:52:17;;;;;;;12.02;5.50;;;3.70;99.90;;;;;;5154999;23;20326;-77
2022/01/10 04:54:44;;;;;;;10.07;5.18;;;3.80;99.90;;;;;;4913705;29;20139;-74
2022/01/10 04:57:11;;;;;;;9.48;5.53;;;3.80;99.90;;;;;;4914197;29;20054;-75
2022/01/10 04:59:38;;;;;;;9.50;5.10;;;3.90;99.90;;;;;;4914172;29;20058;-75
2022/01/10 05:02:05;;;;;;;9.93;5.40;;;3.90;99.90;;;;;;4916205;29;20071;-77
2022/01/10 05:04:32;;;;;;;9.45;5.25;;;3.90;99.90;;;;;;4917497;29;20044;-76
2022/01/10 05:06:59;;;;;;;11.23;5.60;;;4.00;99.90;;;;;;4917379;29;20056;-74
2022/01/10 05:09:28;;;;;;;9.15;5.30;;;4.00;99.90;;;;;;4917408;29;20060;-74
2022/01/10 05:11:55;;;;;;;10.43;5.53;;;4.10;99.90;;;;;;4917196;29;20131;-76
2022/01/10 05:14:22;;;;;;;9.20;5.20;;;4.10;99.90;;;;;;4917324;29;20083;-75
2022/01/10 05:16:49;;;;;;;9.65;5.18;;;4.10;99.90;;;;;;4916901;29;20136;-73
2022/01/10 05:19:16;;;;;;;11.30;5.70;;;4.10;99.90;;;;;;4917191;29;20229;-75
2022/01/10 05:21:43;;;;;;;9.68;5.72;;;4.20;99.90;;;;;;4917030;29;20441;-77
2022/01/10 05:24:11;;;;;;;11.80;6.07;;;4.20;99.90;;;;;;4916923;29;20056;-73
2022/01/10 05:26:39;;;;;;;10.38;5.65;;;4.20;99.90;;;;;;4916685;29;20387;-75
2022/01/10 05:29:06;;;;;;;9.73;5.30;;;4.20;99.90;;;;;;4917003;29;20144;-75
2022/01/10 05:31:34;;;;;;;9.63;5.35;;;4.20;99.90;;;;;;4917074;29;20052;-75
2022/01/10 05:34:01;;;;;;;10.50;5.78;;;4.20;99.90;;;;;;4917139;29;20410;-75
2022/01/10 05:36:28;;;;;;;11.18;5.60;;;4.30;99.90;;;;;;4917056;29;20136;-75
2022/01/10 05:38:56;;;;;;;9.57;5.32;;;4.30;99.90;;;;;;4916898;29;20052;-78
2022/01/10 05:41:24;;;;;;;10.48;5.60;;;4.30;99.90;;;;;;4916851;29;20049;-75
2022/01/10 05:43:55;;;;;;;11.68;5.80;;;4.30;99.90;;;;;;4916947;29;20048;-74
2022/01/10 05:46:23;;;;;;;9.95;5.65;;;4.30;99.90;;;;;;4917163;29;20198;-74
2022/01/10 05:48:53;;;;;;;10.68;5.95;;;4.30;99.90;;;;;;4916720;29;20107;-77
2022/01/10 05:51:21;;;;;;;10.77;5.88;;;4.30;99.90;;;;;;4916605;29;20064;-75
2022/01/10 05:53:48;;;;;;;10.07;5.53;;;4.30;99.90;;;;;;4916654;29;20073;-75
2022/01/10 05:56:15;;;;;;;9.50;6.03;;;4.30;99.90;;;;;;4916712;29;20108;-75
2022/01/10 05:58:42;;;;;;;11.45;5.85;;;4.20;99.90;;;;;;4916529;29;20070;-75
2022/01/10 06:01:11;;;;;;;12.82;6.35;;;4.20;99.90;;;;;;4916059;29;20135;-75
2022/01/10 06:03:38;;;;;;;11.27;6.30;;;4.10;99.90;;;;;;4916922;29;20062;-75
2022/01/10 06:06:05;;;;;;;10.38;5.82;;;4.10;99.90;;;;;;4916919;29;20044;-75
2022/01/10 06:08:32;;;;;;;11.40;6.15;;;4.00;99.90;;;;;;4916748;29;20051;-75
2022/01/10 06:10:59;;;;;;;9.30;5.40;;;4.00;99.90;;;;;;4916783;29;20048;-74
2022/01/10 06:13:26;;;;;;;11.60;6.15;;;4.00;99.90;;;;;;4917099;29;20174;-76
2022/01/10 06:15:53;;;;;;;10.80;5.90;;;4.00;99.90;;;;;;4916839;29;20052;-75
2022/01/10 06:18:21;;;;;;;9.30;6.00;;;4.00;99.90;;;;;;4916665;29;20052;-76
2022/01/10 06:20:49;;;;;;;13.20;5.60;;;3.90;99.90;;;;;;4916858;29;20056;-75
2022/01/10 06:23:16;;;;;;;13.05;5.82;;;4.00;99.90;;;;;;4916533;29;20048;-77
2022/01/10 06:25:43;;;;;;;10.93;5.80;;;4.00;99.90;;;;;;4916449;29;20056;-75
2022/01/10 06:28:10;;;;;;;10.02;6.03;;;4.10;99.90;;;;;;4916560;29;20058;-76
2022/01/10 06:30:37;;;;;;;12.98;6.72;;;4.10;99.90;;;;;;4916597;29;20127;-75
2022/01/10 06:33:04;;;;;;;9.88;6.25;;;4.10;99.90;;;;;;4916330;29;20577;-75
2022/01/10 06:35:33;;;;;;;11.38;7.10;;;4.00;99.90;;;;;;4916381;29;20058;-75
2022/01/10 06:38:00;;;;;;;13.40;7.30;;;4.00;99.90;;;;;;4916349;29;20059;-75
2022/01/10 06:40:27;;;;;;;12.35;7.30;;;4.00;99.90;;;;;;4916235;29;20048;-75
2022/01/10 06:42:54;;;;;;;12.73;7.95;;;3.90;99.90;;;;;;4916256;29;20481;-75
2022/01/10 06:45:21;;;;;;;14.52;7.70;;;3.80;99.90;;;;;;4916522;29;20048;-76
2022/01/10 06:47:49;;;;;;;14.80;7.45;;;3.80;99.90;;;;;;4916407;29;20048;-75
2022/01/10 06:50:16;;;;;;;12.75;7.30;;;3.70;99.90;;;;;;4916193;29;20504;-75
2022/01/10 06:52:45;;;;;;;12.27;7.68;;;3.70;99.90;;;;;;4916256;29;20518;-75
2022/01/10 06:55:12;;;;;;;12.45;7.38;;;3.60;99.90;;;;;;4916443;29;20088;-78
2022/01/10 06:57:39;;;;;;;13.35;7.22;;;3.60;99.90;;;;;;4916431;29;20127;-75
2022/01/10 07:00:09;;;;;;;10.55;6.88;;;3.60;99.90;;;;;;4915438;29;20058;-75
2022/01/10 07:02:36;;;;;;;11.80;7.43;;;3.60;99.90;;;;;;4916368;29;20044;-75
2022/01/10 07:05:03;;;;;;;10.88;7.00;;;3.60;99.90;;;;;;4915869;29;20465;-75
2022/01/10 07:07:30;;;;;;;11.88;6.93;;;3.60;99.90;;;;;;4916257;29;20139;-75
2022/01/10 07:09:58;;;;;;;12.60;7.00;;;3.60;99.90;;;;;;4917612;29;20354;-75
2022/01/10 07:12:25;;;;;;;12.32;7.00;;;3.60;99.90;;;;;;4918632;29;20070;-75
2022/01/10 07:14:52;;;;;;;13.73;7.70;;;3.60;99.90;;;;;;4919749;29;20096;-75
2022/01/10 07:17:19;;;;;;;12.40;7.82;;;3.60;99.90;;;;;;4919383;29;20104;-75
2022/01/10 07:19:47;;;;;;;12.45;7.50;;;3.60;99.90;;;;;;4919115;29;20504;-77
2022/01/10 07:22:14;;;;;;;11.55;7.22;;;3.60;99.90;;;;;;4919229;29;20044;-77
2022/01/10 07:24:41;;;;;;;12.48;6.70;;;3.60;99.90;;;;;;4919281;29;20064;-76
2022/01/10 07:27:09;;;;;;;12.07;7.43;;;3.60;99.90;;;;;;4919131;29;20513;-75
2022/01/10 07:29:36;;;;;;;12.00;7.00;;;3.60;99.90;;;;;;4919073;29;20056;-75
2022/01/10 07:32:05;;;;;;;11.63;6.45;;;3.60;99.90;;;;;;4919146;29;20490;-76
2022/01/10 07:34:32;;;;;;;10.32;6.18;;;3.60;99.90;;;;;;4919189;29;20051;-75
2022/01/10 07:36:59;;;;;;;11.73;6.90;;;3.60;99.90;;;;;;4919391;29;20459;-75
2022/01/10 07:39:26;;;;;;;12.55;6.95;;;3.60;99.90;;;;;;4919361;29;20047;-74
2022/01/10 07:41:53;;;;;;;12.85;7.10;;;3.70;99.90;;;;;;4919183;29;20135;-76
2022/01/10 07:44:22;;;;;;;12.20;6.97;;;3.70;99.90;;;;;;4919045;29;20044;-75
2022/01/10 07:46:49;;;;;;;12.43;6.70;;;3.70;99.90;;;;;;4918993;29;20139;-75
2022/01/10 07:49:16;;;;;;;11.18;6.88;;;3.70;99.90;;;;;;4918912;29;20048;-75
2022/01/10 07:51:43;;;;;;;11.25;7.20;;;3.70;99.90;;;;;;4919065;29;20107;-74
2022/01/10 07:54:10;;;;;;;10.48;6.43;;;3.70;99.90;;;;;;4918887;29;20127;-76
2022/01/10 07:56:37;;;;;;;12.68;7.30;;;3.80;99.90;;;;;;4919013;29;20052;-75
2022/01/10 07:59:04;;;;;;;12.07;7.18;;;3.80;99.90;;;;;;4919080;29;20056;-74
2022/01/10 08:01:32;;;;;;;11.40;6.88;;;3.80;99.90;;;;;;4918598;29;20054;-74
2022/01/10 08:03:59;;;;;;;10.45;6.05;;;3.80;99.90;;;;;;4919017;29;20135;-75
2022/01/10 08:06:26;;;;;;;12.90;7.25;;;3.80;99.90;;;;;;4918813;29;20048;-76
2022/01/10 08:08:53;;;;;;;11.52;6.70;;;3.80;99.90;;;;;;4918574;29;20469;-75
2022/01/10 08:11:20;;;;;;;10.57;6.88;;;3.90;99.90;;;;;;4918698;29;20105;-77
2022/01/10 08:13:47;;;;;;;11.63;6.70;;;3.90;99.90;;;;;;4918481;29;20045;-74
2022/01/10 08:16:14;;;;;;;12.15;7.22;;;4.00;99.90;;;;;;4918482;29;20137;-74
2022/01/10 08:18:43;;;;;;;11.40;7.03;;;4.00;99.90;;;;;;4918492;29;20056;-74
2022/01/10 08:21:10;;;;;;;12.18;7.13;;;4.00;99.90;;;;;;4917348;29;20056;-75
2022/01/10 08:23:37;;;;;;;11.55;6.70;;;4.00;99.90;;;;;;4918470;29;20048;-75
2022/01/10 08:26:08;;;;;;;13.00;6.80;;;4.10;99.90;;;;;;4918261;29;20500;-75
2022/01/10 08:28:35;;;;;;;12.98;7.78;;;4.10;99.90;;;;;;4918127;29;20538;-76
2022/01/10 08:31:02;;;;;;;10.73;6.85;;;4.10;99.90;;;;;;4918048;29;20577;-75
2022/01/10 08:33:29;;;;;;;11.32;6.82;;;4.10;99.90;;;;;;4918606;29;20058;-75
2022/01/10 08:35:58;;;;;;;11.57;7.00;;;4.10;99.90;;;;;;4918403;29;20421;-77
2022/01/10 08:38:25;;;;;;;12.43;7.13;;;4.10;99.90;;;;;;4916896;29;20051;-77
2022/01/10 08:40:53;;;;;;;12.95;7.03;;;4.10;99.90;;;;;;4917019;29;20142;-77
2022/01/10 08:43:20;;;;;;;13.88;7.30;;;4.10;99.90;;;;;;4917853;29;20482;-75
2022/01/10 08:45:47;;;;;;;12.93;7.75;;;4.10;99.90;;;;;;4918088;29;20054;-74
2022/01/10 08:48:14;;;;;;;10.95;6.72;;;4.20;99.90;;;;;;4918150;29;20048;-75
2022/01/10 08:50:41;;;;;;;11.57;7.18;;;4.20;99.90;;;;;;4917585;29;20401;-74
2022/01/10 08:53:11;;;;;;;12.80;7.10;;;4.20;99.90;;;;;;4917791;29;20047;-74
2022/01/10 08:55:38;;;;;;;13.45;7.93;;;4.30;99.90;;;;;;4917832;29;20413;-77
2022/01/10 08:58:05;;;;;;;14.13;8.00;;;4.30;99.90;;;;;;4917860;29;20094;-77
2022/01/10 09:00:33;;;;;;;16.83;8.05;;;4.30;99.90;;;;;;4917767;29;20044;-74
2022/01/10 09:03:02;;;;;;;14.68;8.68;;;4.30;99.90;;;;;;4917715;29;20047;-77
2022/01/10 09:05:29;;;;;;;15.52;8.10;;;4.30;99.90;;;;;;4917923;29;20048;-75
2022/01/10 09:07:58;;;;;;;14.95;8.95;;;4.30;99.90;;;;;;4917766;29;20048;-75
2022/01/10 09:10:27;;;;;;;15.13;8.45;;;4.30;99.90;;;;;;4917544;29;20485;-75
2022/01/10 09:12:55;;;;;;;15.23;9.27;;;4.30;99.90;;;;;;4917403;29;20487;-75
2022/01/10 09:15:22;;;;;;;14.93;9.27;;;4.30;99.90;;;;;;4918045;29;20052;-75
2022/01/10 09:17:49;;;;;;;16.98;9.07;;;4.40;99.90;;;;;;4917499;29;20131;-76
2022/01/10 09:20:16;;;;;;;18.42;9.43;;;4.40;99.90;;;;;;4917387;29;20079;-76
2022/01/10 09:22:43;;;;;;;16.80;9.60;;;4.40;99.90;;;;;;4917222;29;20054;-77
2022/01/10 09:25:11;;;;;;;15.65;9.48;;;4.40;99.90;;;;;;4917480;29;20052;-74
2022/01/10 09:27:39;;;;;;;15.20;9.18;;;4.50;99.90;;;;;;4916875;29;20047;-76
2022/01/10 09:30:07;;;;;;;15.77;8.77;;;4.50;99.90;;;;;;4917224;29;20048;-74
2022/01/10 09:32:34;;;;;;;15.43;9.30;;;4.60;99.90;;;;;;4916913;29;20058;-74
2022/01/10 09:35:02;;;;;;;19.95;10.55;;;4.60;99.90;;;;;;4917122;29;20058;-74
2022/01/10 09:37:29;;;;;;;16.92;9.27;;;4.70;99.90;;;;;;4917071;29;20470;-74
2022/01/10 09:39:56;;;;;;;18.55;9.50;;;4.70;99.90;;;;;;4916884;29;20545;-73
2022/01/10 09:42:24;;;;;;;19.92;10.45;;;4.70;99.90;;;;;;4917086;29;20131;-75
2022/01/10 09:44:53;;;;;;;18.33;9.55;;;4.80;99.90;;;;;;4917214;29;20052;-75
2022/01/10 09:47:20;;;;;;;18.65;9.90;;;4.80;99.90;;;;;;4916968;29;20052;-74
2022/01/10 09:49:47;;;;;;;19.75;10.32;;;4.80;99.90;;;;;;4916591;29;20052;-73
2022/01/10 09:52:16;;;;;;;21.30;11.02;;;4.80;99.90;;;;;;4916867;29;20134;-76
2022/01/10 09:54:43;;;;;;;18.17;10.95;;;4.80;99.90;;;;;;4916866;29;20048;-75
2022/01/10 09:57:11;;;;;;;18.80;11.00;;;4.90;99.90;;;;;;4916827;29;20048;-74
2022/01/10 09:59:40;;;;;;;19.98;10.82;;;4.90;99.90;;;;;;4916767;29;20054;-75
2022/01/10 10:02:09;;;;;;;20.42;10.38;;;4.90;99.90;;;;;;4916672;29;20088;-75
2022/01/10 10:04:37;;;;;;;20.35;10.88;;;5.00;99.90;;;;;;4915772;29;20406;-75
2022/01/10 10:07:06;;;;;;;20.08;10.27;;;5.00;99.90;;;;;;4916837;29;20139;-77
2022/01/10 10:09:34;;;;;;;15.43;9.20;;;5.10;99.90;;;;;;4916521;29;20059;-75
2022/01/10 10:12:04;;;;;;;17.00;9.25;;;5.10;99.90;;;;;;4916761;29;20132;-77
2022/01/10 10:14:32;;;;;;;16.00;9.80;;;5.10;99.90;;;;;;4916716;29;20060;-77
2022/01/10 10:17:13;;;;;;;24.98;10.60;;;5.10;99.90;;;;;;4916605;29;20076;-76
2022/01/10 10:19:43;;;;;;;17.15;9.38;;;5.20;99.90;;;;;;4916767;29;20050;-76
2022/01/10 10:22:10;;;;;;;20.00;10.00;;;5.20;99.90;;;;;;4917000;29;20048;-77
2022/01/10 10:24:37;;;;;;;18.75;10.10;;;5.20;99.90;;;;;;4916612;29;20498;-76
2022/01/10 10:27:05;;;;;;;26.48;12.10;;;5.20;99.90;;;;;;4916629;29;20051;-75
2022/01/10 10:29:32;;;;;;;28.85;11.88;;;5.20;99.90;;;;;;4916386;29;20106;-74
2022/01/10 10:32:02;;;;;;;28.73;12.07;;;5.20;99.90;;;;;;4901410;29;20059;-76
2022/01/10 10:34:31;;;;;;;20.65;12.02;;;5.30;99.90;;;;;;4897913;29;20044;-75
2022/01/10 10:37:07;;;;;;;18.27;11.30;;;5.30;99.90;;;;;;4897961;29;20184;-76
2022/01/10 10:39:37;;;;;;;21.48;11.07;;;5.30;99.90;;;;;;4897680;29;20144;-75
2022/01/10 10:42:08;;;;;;;21.15;10.40;;;5.30;99.90;;;;;;4897442;29;20053;-74
2022/01/10 10:44:35;;;;;;;17.40;10.43;;;5.30;99.90;;;;;;4899180;29;20052;-75
2022/01/10 10:47:03;;;;;;;19.95;10.85;;;5.40;99.90;;;;;;4901283;29;20062;-74
2022/01/10 10:49:37;;;;;;;19.50;10.52;;;5.50;99.90;;;;;;4901311;29;20048;-75
2022/01/10 10:52:09;;;;;;;19.95;10.93;;;5.40;99.90;;;;;;4901213;29;20056;-75
2022/01/10 10:54:37;;;;;;;19.23;10.18;;;5.40;99.90;;;;;;4901215;29;20501;-76
2022/01/10 10:57:09;;;;;;;22.52;11.55;;;5.50;99.90;;;;;;4901182;29;20052;-76
2022/01/10 10:59:39;;;;;;;17.60;10.88;;;5.50;99.90;;;;;;4902168;29;20141;-74
2022/01/10 11:02:07;;;;;;;19.83;11.15;;;5.50;99.90;;;;;;4901411;29;20056;-76
2022/01/10 11:04:34;;;;;;;19.00;10.65;;;5.50;99.90;;;;;;4901142;29;20059;-75
2022/01/10 11:07:01;;;;;;;18.80;10.57;;;5.50;99.90;;;;;;4900974;29;20148;-73
2022/01/10 11:09:30;;;;;;;17.17;9.60;;;5.60;99.90;;;;;;4901103;29;20131;-75
2022/01/10 11:11:57;;;;;;;16.70;10.10;;;5.50;99.90;;;;;;4900922;29;20459;-75
2022/01/10 11:14:25;;;;;;;22.00;11.50;;;5.60;99.90;;;;;;4900788;29;20131;-74
2022/01/10 11:16:54;;;;;;;19.27;10.40;;;5.60;99.90;;;;;;4900766;29;20060;-74
2022/01/10 11:19:26;;;;;;;21.13;11.13;;;5.60;99.90;;;;;;4900754;29;20049;-77
2022/01/10 11:21:56;;;;;;;19.83;11.07;;;5.60;99.90;;;;;;4900548;29;20380;-74
2022/01/10 11:24:47;;;;;;;18.63;10.40;;;5.60;99.90;;;;;;4899295;29;20055;-74
2022/01/10 11:27:30;;;;;;;20.73;9.13;;;5.50;99.90;;;;;;4897906;29;20083;-75
2022/01/10 11:29:57;;;;;;;17.88;9.50;;;5.50;99.90;;;;;;4899378;29;20053;-76
2022/01/10 11:32:56;;;;;;;16.80;9.23;;;5.50;99.90;;;;;;4902326;29;20056;-76
2022/01/10 11:35:27;;;;;;;18.60;9.32;;;5.50;99.90;;;;;;4898342;29;20049;-74
2022/01/10 11:37:54;;;;;;;16.35;8.73;;;5.40;99.90;;;;;;4897663;29;20049;-76
2022/01/10 11:40:23;;;;;;;13.30;8.02;;;5.40;99.90;;;;;;4897951;29;20135;-77
2022/01/10 11:42:57;;;;;;;15.45;8.25;;;5.30;99.90;;;;;;4897950;29;20076;-74
2022/01/10 11:45:25;;;;;;;17.25;7.93;;;5.30;99.90;;;;;;4897298;29;20057;-74
2022/01/10 11:48:17;;;;;;;15.38;8.48;;;5.30;99.90;;;;;;4898099;29;20055;-75
2022/01/10 11:50:47;;;;;;;18.95;8.75;;;5.30;99.90;;;;;;4897157;29;20063;-74
2022/01/10 11:53:16;;;;;;;17.70;8.40;;;5.20;99.90;;;;;;4897827;29;20060;-76
2022/01/10 11:55:56;;;;;;;15.50;7.70;;;5.20;99.90;;;;;;4896990;29;20056;-75
2022/01/10 11:58:25;;;;;;;15.77;8.10;;;5.20;99.90;;;;;;4897579;29;20064;-75
2022/01/10 12:01:06;;;;;;;14.45;7.70;;;5.20;99.90;;;;;;4897802;29;20056;-75
2022/01/10 12:03:33;;;;;;;14.02;7.35;;;5.20;99.90;;;;;;4897530;29;20128;-77
2022/01/10 12:06:01;;;;;;;13.48;7.18;;;5.10;99.90;;;;;;4897568;29;20389;-75
2022/01/10 12:08:28;;;;;;;14.73;7.57;;;5.20;99.90;;;;;;4897559;29;20139;-75
2022/01/10 12:10:57;;;;;;;13.13;7.32;;;5.20;99.90;;;;;;4897445;29;20066;-76
2022/01/10 12:13:28;;;;;;;13.05;7.35;;;5.20;99.90;;;;;;4897386;29;20083;-77
2022/01/10 12:16:00;;;;;;;14.75;7.07;;;5.20;99.90;;;;;;4897105;29;20387;-73
2022/01/10 12:18:27;;;;;;;13.93;7.50;;;5.30;99.90;;;;;;4897280;29;20056;-74
2022/01/10 12:20:54;;;;;;;13.77;7.20;;;5.30;99.90;;;;;;4896642;29;20147;-75
2022/01/10 12:23:21;;;;;;;11.75;7.05;;;5.30;99.90;;;;;;4896787;29;20486;-78
2022/01/10 12:25:49;;;;;;;16.80;7.00;;;5.40;99.90;;;;;;4896672;29;20044;-75
2022/01/10 12:28:17;;;;;;;15.48;7.20;;;5.40;99.90;;;;;;4896672;29;20152;-75
2022/01/10 12:30:45;;;;;;;16.75;7.68;;;5.40;99.90;;;;;;4896360;29;20053;-75
2022/01/10 12:33:12;;;;;;;12.90;6.82;;;5.50;99.90;;;;;;4896514;29;20487;-74
2022/01/10 12:35:39;;;;;;;11.98;6.35;;;5.50;99.90;;;;;;4896428;29;20055;-74
2022/01/10 12:38:06;;;;;;;12.30;6.55;;;5.60;99.90;;;;;;4896418;29;20143;-74
2022/01/10 12:40:33;;;;;;;10.98;6.05;;;5.60;99.90;;;;;;4896442;29;20087;-75
2022/01/10 12:43:00;;;;;;;13.45;6.93;;;5.60;99.90;;;;;;4895978;29;20485;-74
2022/01/10 12:45:35;;;;;;;12.32;6.30;;;5.70;99.90;;;;;;4896277;29;20084;-74
2022/01/10 12:48:02;;;;;;;12.25;6.53;;;5.70;99.90;;;;;;4896542;29;20059;-77
2022/01/10 12:50:29;;;;;;;16.67;6.95;;;5.80;99.90;;;;;;4896977;29;20083;-77
2022/01/10 12:52:56;;;;;;;13.85;6.60;;;5.90;99.90;;;;;;4895911;29;20426;-76
2022/01/10 12:55:24;;;;;;;11.98;6.38;;;6.00;99.90;;;;;;4895589;29;20056;-74
2022/01/10 12:57:51;;;;;;;13.80;6.63;;;6.00;99.90;;;;;;4896389;29;20055;-73
2022/01/10 13:00:19;;;;;;;15.38;7.15;;;6.00;99.90;;;;;;4896273;29;20049;-74
2022/01/10 13:02:48;;;;;;;15.27;7.03;;;6.00;99.90;;;;;;4895734;29;20048;-74
2022/01/10 13:05:17;;;;;;;12.77;7.35;;;6.00;99.90;;;;;;4895964;29;20072;-78
2022/01/10 13:07:46;;;;;;;16.40;7.55;;;6.00;99.90;;;;;;4894983;29;20649;-75
2022/01/10 13:10:22;;;;;;;13.65;7.20;;;5.90;99.90;;;;;;4895969;29;20044;-74
2022/01/10 13:12:50;;;;;;;15.73;7.07;;;6.00;99.90;;;;;;4895949;29;20052;-74
2022/01/10 13:15:18;;;;;;;12.38;6.70;;;6.00;99.90;;;;;;4895990;29;20127;-76
2022/01/10 13:17:58;;;;;;;13.30;7.45;;;6.20;99.90;;;;;;4895887;29;20139;-77
2022/01/10 13:20:27;;;;;;;17.02;7.57;;;6.50;99.90;;;;;;4895817;29;20060;-74
2022/01/10 13:23:02;;;;;;;13.68;7.25;;;6.70;99.90;;;;;;4895479;29;20052;-75
2022/01/10 13:25:34;;;;;;;18.30;7.82;;;7.50;99.70;;;;;;4895834;29;20459;-74
2022/01/10 13:28:05;;;;;;;13.82;7.20;;;7.90;97.50;;;;;;4895971;29;20459;-74
2022/01/10 13:30:32;;;;;;;14.43;7.68;;;8.00;96.90;;;;;;4895843;29;20049;-75
2022/01/10 13:33:04;;;;;;;13.75;7.25;;;7.90;96.80;;;;;;4895681;29;20147;-75
2022/01/10 13:35:32;;;;;;;14.32;6.95;;;7.80;96.80;;;;;;4895034;29;20136;-75
2022/01/10 13:38:04;;;;;;;12.85;7.07;;;7.70;96.90;;;;;;4895957;29;20389;-73
2022/01/10 13:40:40;;;;;;;14.63;7.57;;;7.60;96.80;;;;;;4895474;29;20072;-73
2022/01/10 13:43:09;;;;;;;12.65;7.68;;;7.50;96.90;;;;;;4895281;29;20502;-76
2022/01/10 13:45:43;;;;;;;11.45;6.45;;;7.40;97.20;;;;;;4895462;29;20074;-74
2022/01/10 13:48:16;;;;;;;12.90;6.43;;;7.20;97.30;;;;;;4895162;29;20108;-73
2022/01/10 13:50:47;;;;;;;10.02;5.75;;;7.10;97.40;;;;;;4895460;29;20052;-73
2022/01/10 13:53:19;;;;;;;12.90;5.72;;;7.10;97.60;;;;;;4895282;29;20518;-75
2022/01/10 13:56:05;;;;;;;14.48;5.90;;;7.00;97.30;;;;;;4895794;29;20080;-73
2022/01/10 13:58:33;;;;;;;12.18;5.50;;;6.90;97.30;;;;;;4895468;29;20055;-74
2022/01/10 14:01:04;;;;;;;10.77;5.70;;;6.80;97.60;;;;;;4895709;29;20151;-75
2022/01/10 14:03:35;;;;;;;11.70;5.80;;;6.80;97.80;;;;;;4898775;29;20140;-75
2022/01/10 14:06:15;;;;;;;12.95;6.80;;;6.70;98.20;;;;;;4900267;29;20071;-75
2022/01/10 14:08:45;;;;;;;12.07;6.10;;;6.80;98.40;;;;;;4899344;29;20084;-77
2022/01/10 14:11:14;;;;;;;12.43;6.10;;;6.80;98.10;;;;;;4897627;29;20501;-74
2022/01/10 14:13:48;;;;;;;13.98;6.50;;;6.80;98.20;;;;;;4895212;29;20562;-75
2022/01/10 14:16:17;;;;;;;13.73;6.10;;;6.80;98.10;;;;;;4895285;29;20064;-74
2022/01/10 14:18:46;;;;;;;11.40;6.15;;;6.80;98.00;;;;;;4897162;29;20086;-74
2022/01/10 14:21:14;;;;;;;11.85;5.93;;;6.80;97.90;;;;;;4899443;29;20104;-73
2022/01/10 14:23:42;;;;;;;11.80;6.00;;;6.80;98.10;;;;;;4899424;29;20418;-77
2022/01/10 14:26:12;;;;;;;10.00;5.70;;;6.80;97.80;;;;;;4898738;29;20084;-75
2022/01/10 14:28:41;;;;;;;12.27;5.93;;;6.80;97.70;;;;;;4898640;29;20068;-78
2022/01/10 14:31:09;;;;;;;22.25;6.65;;;6.70;97.70;;;;;;4898670;29;20049;-75
2022/01/10 14:33:36;;;;;;;12.20;5.93;;;6.70;97.80;;;;;;4899029;29;20044;-80
2022/01/10 14:36:05;;;;;;;12.23;6.45;;;6.60;97.90;;;;;;4899145;29;20131;-79
2022/01/10 14:38:33;;;;;;;11.55;6.18;;;6.60;98.20;;;;;;4900245;29;20109;-78
2022/01/10 14:41:02;;;;;;;12.13;6.63;;;6.60;98.30;;;;;;4899410;29;20057;-74
2022/01/10 14:43:29;;;;;;;12.68;5.97;;;6.50;98.40;;;;;;4898781;29;20056;-77
2022/01/10 14:45:57;;;;;;;9.00;5.40;;;6.50;98.60;;;;;;4898489;29;20048;-78
2022/01/10 14:48:25;;;;;;;9.95;5.10;;;6.50;98.70;;;;;;4898588;29;20136;-77
2022/01/10 14:50:52;;;;;;;19.45;6.05;;;6.50;99.00;;;;;;4898666;29;20481;-77
2022/01/10 14:53:21;;;;;;;12.10;5.70;;;6.50;99.20;;;;;;4898482;29;20072;-76
2022/01/10 14:55:54;;;;;;;8.45;5.63;;;6.50;98.90;;;;;;4898453;29;20076;-77
2022/01/10 14:58:22;;;;;;;13.15;5.75;;;6.50;98.90;;;;;;4898880;29;20053;-78
2022/01/10 15:00:49;;;;;;;11.77;5.93;;;6.50;98.60;;;;;;4898589;29;20414;-77
2022/01/10 15:03:20;;;;;;;12.88;6.10;;;6.50;98.60;;;;;;4898557;29;20609;-77
2022/01/10 15:05:48;;;;;;;12.52;5.93;;;6.40;98.80;;;;;;4898205;29;20449;-79
2022/01/10 15:08:16;;;;;;;13.30;6.30;;;6.40;98.80;;;;;;4898499;29;20065;-77
2022/01/10 15:10:44;;;;;;;12.43;5.82;;;6.40;99.00;;;;;;4898722;29;20104;-79
2022/01/10 15:13:12;;;;;;;13.70;5.63;;;6.40;99.20;;;;;;4897908;29;20113;-77
2022/01/10 15:15:39;;;;;;;13.10;5.88;;;6.30;99.30;;;;;;4898079;29;20050;-78
2022/01/10 15:18:07;;;;;;;13.60;6.03;;;6.30;99.40;;;;;;4898241;29;20139;-77
2022/01/10 15:20:34;;;;;;;11.90;5.90;;;6.30;99.50;;;;;;4897845;29;20052;-78
2022/01/10 15:23:02;;;;;;;11.35;5.88;;;6.30;99.50;;;;;;4898111;29;20139;-76
2022/01/10 15:25:30;;;;;;;10.60;5.32;;;6.20;99.50;;;;;;4899011;29;20055;-78
2022/01/10 15:27:59;;;;;;;13.95;6.20;;;6.20;99.90;;;;;;4916660;29;20062;-77
2022/01/10 15:30:27;;;;;;;9.98;5.20;;;6.20;99.80;;;;;;4916141;29;20048;-76
2022/01/10 15:32:54;;;;;;;9.73;5.20;;;6.10;99.80;;;;;;4916237;29;20055;-75
2022/01/10 15:35:21;;;;;;;15.05;6.18;;;6.10;99.90;;;;;;4916948;29;20059;-76
2022/01/10 15:37:50;;;;;;;11.65;6.03;;;6.10;99.90;;;;;;4917014;29;20087;-77
2022/01/10 15:40:18;;;;;;;10.38;6.30;;;6.10;99.90;;;;;;4917309;29;20052;-77
2022/01/10 15:42:45;;;;;;;13.68;6.18;;;6.10;99.90;;;;;;4916361;29;20062;-77
2022/01/10 15:45:14;;;;;;;12.32;6.47;;;6.00;99.90;;;;;;4916286;29;20482;-78
2022/01/10 15:47:43;;;;;;;12.30;6.28;;;6.10;99.90;;;;;;4916458;29;20135;-77
2022/01/10 15:50:11;;;;;;;15.55;7.10;;;6.00;99.90;;;;;;4916884;29;20510;-77
2022/01/10 15:52:42;;;;;;;11.88;6.28;;;6.00;99.90;;;;;;4916097;29;20091;-76
2022/01/10 15:55:10;;;;;;;11.32;6.10;;;6.00;99.90;;;;;;4916429;29;20435;-76
2022/01/10 15:57:37;;;;;;;12.27;6.07;;;6.00;99.90;;;;;;4914183;29;20306;-79
2022/01/10 16:00:07;;;;;;;13.23;6.63;;;6.00;99.90;;;;;;4905342;29;20146;-75
2022/01/10 16:02:35;;;;;;;13.38;6.38;;;6.00;99.90;;;;;;4916092;29;20138;-78
2022/01/10 16:05:03;;;;;;;15.00;7.07;;;5.90;99.90;;;;;;4916089;29;20052;-76
2022/01/10 16:07:30;;;;;;;13.70;6.60;;;5.90;99.90;;;;;;4916021;29;20078;-78
2022/01/10 16:09:58;;;;;;;12.00;6.45;;;5.90;99.90;;;;;;4916056;29;20138;-78
2022/01/10 16:12:25;;;;;;;13.00;6.85;;;5.80;99.90;;;;;;4915636;29;20083;-77
2022/01/10 16:14:52;;;;;;;15.27;8.02;;;5.80;99.90;;;;;;4916121;29;20044;-78
2022/01/10 16:17:20;;;;;;;12.43;6.60;;;5.80;99.90;;;;;;4917089;29;20073;-76
2022/01/10 16:19:49;;;;;;;13.55;7.38;;;5.80;99.90;;;;;;4916794;29;20048;-77
2022/01/10 16:22:16;;;;;;;13.00;6.90;;;5.70;99.90;;;;;;4916311;29;20063;-78
2022/01/10 16:24:43;;;;;;;13.65;6.68;;;5.70;99.90;;;;;;4915401;29;20562;-79
2022/01/10 16:27:10;;;;;;;10.93;5.75;;;5.60;99.90;;;;;;4916016;29;20466;-77
2022/01/10 16:29:39;;;;;;;14.18;6.50;;;5.60;99.90;;;;;;4916108;29;20052;-77
2022/01/10 16:32:08;;;;;;;11.20;5.85;;;5.50;99.90;;;;;;4916208;29;20056;-77
2022/01/10 16:34:35;;;;;;;11.73;6.10;;;5.40;99.90;;;;;;4915807;29;20495;-76
2022/01/10 16:37:04;;;;;;;11.27;5.97;;;5.30;99.90;;;;;;4909755;29;20450;-76
2022/01/10 16:39:31;;;;;;;12.60;6.53;;;5.30;99.90;;;;;;4915445;29;20123;-76
2022/01/10 16:41:59;;;;;;;12.05;6.30;;;5.30;99.90;;;;;;4912248;29;20059;-80
2022/01/10 16:44:26;;;;;;;11.73;6.20;;;5.30;99.90;;;;;;4909510;29;20047;-77
2022/01/10 16:46:53;;;;;;;11.73;5.82;;;5.20;99.90;;;;;;4905758;29;20144;-79
2022/01/10 16:49:21;;;;;;;11.75;6.03;;;5.20;99.90;;;;;;4900922;29;20048;-80
2022/01/10 16:51:48;;;;;;;10.43;6.05;;;5.20;99.90;;;;;;4898592;29;20052;-78
2022/01/10 16:54:16;;;;;;;12.82;5.90;;;5.20;99.90;;;;;;4906705;29;20139;-77
2022/01/10 16:56:43;;;;;;;10.23;5.45;;;5.10;99.90;;;;;;4914104;29;20138;-79
2022/01/10 16:59:10;;;;;;;12.73;5.40;;;5.10;99.90;;;;;;4914056;29;20074;-79
2022/01/10 17:01:38;;;;;;;11.45;5.80;;;5.10;99.90;;;;;;4914909;29;20696;-78
2022/01/10 17:04:06;;;;;;;15.38;6.40;;;5.10;99.90;;;;;;4914300;29;20088;-78
2022/01/10 17:06:33;;;;;;;13.48;6.78;;;5.10;99.90;;;;;;4913754;29;20060;-78
2022/01/10 17:09:00;;;;;;;16.02;7.38;;;5.10;99.90;;;;;;4914263;29;20052;-77
2022/01/10 17:11:29;;;;;;;13.68;7.05;;;5.10;99.90;;;;;;4914011;29;20048;-80
2022/01/10 17:13:56;;;;;;;12.68;7.28;;;5.10;99.90;;;;;;4913692;29;20088;-79
2022/01/10 17:16:23;;;;;;;12.20;6.72;;;5.10;99.90;;;;;;4912679;29;20601;-78
2022/01/10 17:18:50;;;;;;;11.88;6.43;;;5.00;99.90;;;;;;4913681;29;20486;-76
2022/01/10 17:21:17;;;;;;;11.82;6.07;;;5.00;99.90;;;;;;4913095;29;20483;-77
2022/01/10 17:23:44;;;;;;;13.57;6.35;;;5.00;99.90;;;;;;4911292;29;20055;-78
2022/01/10 17:26:11;;;;;;;12.10;5.88;;;4.90;99.90;;;;;;4902305;29;20092;-78
2022/01/10 17:28:40;;;;;;;14.57;5.90;;;4.90;99.90;;;;;;4899929;29;20044;-78
2022/01/10 17:31:07;;;;;;;9.65;5.00;;;4.90;99.90;;;;;;4905037;29;20048;-77
2022/01/10 17:33:35;;;;;;;10.07;5.13;;;4.80;99.90;;;;;;4912661;29;20048;-78
2022/01/10 17:36:03;;;;;;;12.02;5.70;;;4.80;99.90;;;;;;4913405;29;20131;-79
2022/01/10 17:38:31;;;;;;;12.32;5.85;;;4.70;99.90;;;;;;4913445;29;20103;-77
2022/01/10 17:41:00;;;;;;;12.02;5.72;;;4.70;99.90;;;;;;4902077;29;20139;-77